Tiempo atmosférico en la estación meteorológica de Bunyola, Sierra de Alfabia, Illes Balears (1030 m.)



Fecha
DESCASC
Temp. máxima en grados centígrados (hora)
DESCASC
Temp. mínima en grados centígrados (hora)
DESCASC
Temp. media en grados centígrados
DESCASC
Racha de viento máxima en m/sg (hora)
DESCASC
Velocidad máxima media en intervalos de 10 minutos(hora)
DESCASC
Precipitaciones diarias en mm
DESCASC
Precipitaciones de 00:00 a 06:00 en mm
DESCASC
Precipitaciones de 06:00 a 12:00 en mm
DESCASC
Precipitaciones de 12:00 a 18:00 en mm
DESCASC
Precipitaciones de 18:00 a 24:00 en mm
DESCASC

Gráficas

Temp. máximas Temp. mínimas Temp. medias Precipitaciones Rachas de viento máximas Velocidades máximas media en intervalos de 10 minutos

Datos horarios

Fecha y hora oficial Temperatura (ºC) Velocidad del viento (km/h) Dirección del viento Racha (km/h) Dirección de racha Precipitación (mm) Presión (hPa) Tendencia (hPa) Humedad (%)
2019-12-09 23:00:00 5.2 39 Noroeste 76 Noroeste 0 -- -- 99
2019-12-09 22:00:00 5.7 43 Noroeste 76 Noroeste 0 -- -- 99
2019-12-09 21:00:00 5.9 44 Noroeste 77 Noroeste 0 -- -- 96
2019-12-09 20:00:00 6.7 42 Noroeste 72 Noroeste 0 -- -- 98
2019-12-09 19:00:00 6.8 45 Noroeste 72 Noroeste 0 -- -- 98
2019-12-09 18:00:00 6.8 40 Noroeste 76 Norte 0 -- -- 97
2019-12-09 17:00:00 6.6 41 Noroeste 76 Noroeste 0 -- -- 95
2019-12-09 16:00:00 7 48 Noroeste 81 Noroeste 0 -- -- 89
2019-12-09 15:00:00 7.1 42 Noroeste 72 Noroeste 0 -- -- 90
2019-12-09 14:00:00 7.8 45 Noroeste 78 Noroeste 0 -- -- 80
2019-12-09 13:00:00 8.9 47 Noroeste 93 Norte 0 -- -- 68
2019-12-09 12:00:00 8.4 61 Noroeste 95 Norte 0 -- -- 71
2019-12-09 11:00:00 8.3 51 Noroeste 82 Noroeste 0 -- -- 76
2019-12-09 10:00:00 7.4 51 Noroeste 80 Noroeste 0 -- -- 89
2019-12-09 09:00:00 6.6 45 Noroeste 64 Noroeste 0 -- -- 96
2019-12-09 08:00:00 7.1 49 Noroeste 63 Noroeste 0 -- -- 99
2019-12-09 07:00:00 7.1 40 Noroeste 56 Noroeste 0 -- -- 99
2019-12-09 06:00:00 6.8 42 Noroeste 77 Noroeste 0 -- -- 99
2019-12-09 05:00:00 7.3 54 Noroeste 80 Noroeste 0 -- -- 99
2019-12-09 04:00:00 7.5 43 Noroeste 63 Noroeste 0 -- -- 99
2019-12-09 03:00:00 7.5 34 Noroeste 62 Noroeste 0 -- -- 99
2019-12-09 02:00:00 8.1 33 Noroeste 48 Noroeste 0 -- -- 99
2019-12-09 01:00:00 7.5 26 Noroeste 39 Noroeste 0 -- -- 99
2019-12-09 00:00:00 9.3 23 Noroeste 37 Noroeste 0 -- -- 70
2019-12-08 23:00:00 9.5 23 Noroeste 36 Noroeste 0 -- -- 68
2019-12-08 22:00:00 8 25 Noroeste 40 Noroeste 0 -- -- 81
2019-12-08 21:00:00 8.1 28 Noroeste 41 Noroeste 0 -- -- 79
2019-12-08 20:00:00 8.1 26 Noroeste 38 Oeste 0 -- -- 79
2019-12-08 19:00:00 8.3 24 Noroeste 34 Noroeste 0 -- -- 76
2019-12-08 18:00:00 8.2 17 Oeste 30 Noroeste 0 -- -- 82
2019-12-08 17:00:00 9.2 12 Oeste 23 Oeste 0 -- -- 78
2019-12-08 16:00:00 10.5 8 Noroeste 18 Noroeste 0 -- -- 77
2019-12-08 15:00:00 11.1 11 Noroeste 22 Norte 0 -- -- 77
2019-12-08 14:00:00 11.6 12 Noroeste 21 Oeste 0 -- -- 72
2019-12-08 13:00:00 11.4 10 Oeste 18 Norte 0 -- -- 69
2019-12-08 12:00:00 10.4 17 Noroeste 30 Noroeste 0 -- -- 74
2019-12-08 11:00:00 10.6 18 Noroeste 28 Noroeste 0 -- -- 71
2019-12-08 10:00:00 9.3 17 Noroeste 28 Noroeste 0 -- -- 78
2019-12-08 09:00:00 8 21 Noroeste 31 Noroeste 0 -- -- 80
2019-12-08 08:00:00 7.5 21 Noroeste 29 Noroeste 0 -- -- 81
2019-12-08 07:00:00 7.5 20 Noroeste 24 Noroeste 0 -- -- 79
2019-12-08 06:00:00 7.6 18 Noroeste 21 Norte 0 -- -- 76
2019-12-08 05:00:00 7.6 13 Noroeste 15 Norte 0 -- -- 76
2019-12-08 04:00:00 7.4 15 Noroeste 22 Noroeste 0 -- -- 79
2019-12-08 03:00:00 7.3 18 Noroeste 21 Noroeste 0 -- -- 81
2019-12-08 02:00:00 7.5 4 Noroeste 8 Noroeste 0 -- -- 78
2019-12-08 01:00:00 7.3 5 Norte 13 Norte 0 -- -- 81
2019-12-08 00:00:00 7.5 11 Norte 14 Norte 0 -- -- 79
2019-12-07 23:00:00 7.4 12 Norte 14 Norte 0 -- -- 80
2019-12-07 22:00:00 7.7 9 Norte 12 Norte 0 -- -- 80
2019-12-07 21:00:00 8.3 8 Norte 15 Noroeste 0 -- -- 73
2019-12-07 20:00:00 9 9 Norte 10 Norte 0 -- -- 63
2019-12-07 19:00:00 9 9 Norte 12 Norte 0 -- -- 65
2019-12-07 18:00:00 8.7 10 Noroeste 12 Norte 0 -- -- 79
2019-12-07 17:00:00 8.9 8 Norte 12 Noroeste 0 -- -- 70
2019-12-07 16:00:00 9.8 5 Noroeste 13 Noroeste 0 -- -- 80
2019-12-07 15:00:00 10.4 10 Noroeste 14 Norte 0 -- -- 60
2019-12-07 14:00:00 9.1 10 Noroeste 12 Norte 0 -- -- 88
2019-12-07 13:00:00 9.1 3 Norte 10 Nordeste 0 -- -- 93
2019-12-07 12:00:00 9 6 Nordeste 9 Nordeste 0 -- -- 96
2019-12-07 11:00:00 9.7 4 Noroeste 15 Norte 0 -- -- 77
2019-12-07 10:00:00 8.2 6 Noroeste 11 Noroeste 0 -- -- 85
2019-12-07 09:00:00 7.7 10 Noroeste 14 Noroeste 0 -- -- 86
2019-12-07 08:00:00 8.2 9 Noroeste 13 Oeste 0 -- -- 79
2019-12-07 07:00:00 8 8 Noroeste 14 Noroeste 0 -- -- 80
2019-12-07 06:00:00 6.9 13 Noroeste 19 Noroeste 0 -- -- 93
2019-12-07 05:00:00 7.4 0 Calma 18 Norte 0 -- -- 99
2019-12-07 04:00:00 7.3 10 Norte 14 Norte 0 -- -- 99
2019-12-07 03:00:00 7.7 14 Noroeste 19 Noroeste 0 -- -- 98
2019-12-07 02:00:00 8.4 6 Noroeste 12 Noroeste 0 -- -- 81
2019-12-07 01:00:00 8.5 9 Noroeste 14 Noroeste 0 -- -- 79
2019-12-07 00:00:00 7.9 10 Noroeste 17 Noroeste 0 -- -- 92
2019-12-06 23:00:00 7.8 6 Oeste 15 Noroeste 0 -- -- 91
2019-12-06 22:00:00 8 9 Oeste 16 Oeste 0 -- -- 91
2019-12-06 21:00:00 7.5 6 Sudoeste 13 Oeste 0 -- -- 99
2019-12-06 20:00:00 7.8 5 Sudoeste 12 Sudoeste 0 -- -- 99
2019-12-06 19:00:00 8.1 6 Sur 14 Sur 0 -- -- 99
2019-12-06 18:00:00 8.4 6 Sur 15 Sur 0 -- -- 99
2019-12-06 17:00:00 8.9 10 Sur 19 Sur 0 -- -- 99
2019-12-06 16:00:00 9.6 9 Sur 17 Sur 0 -- -- 99
2019-12-06 15:00:00 10.7 6 Sur 15 Sur 0 -- -- 97
2019-12-06 14:00:00 9 4 Nordeste 6 Nordeste 0 -- -- 89
2019-12-06 13:00:00 10.5 3 Oeste 15 Sur 0 -- -- 83
2019-12-06 12:00:00 10.1 5 Norte 9 Noroeste 0 -- -- 84
2019-12-06 11:00:00 10.1 5 Norte 7 Norte 0 -- -- 82
2019-12-06 10:00:00 9.6 4 Noroeste 11 Noroeste 0 -- -- 82
2019-12-06 09:00:00 7.7 0 Calma 12 Sur 0 -- -- 87
2019-12-06 08:00:00 7.5 6 Sudeste 14 Sur 0 -- -- 88
2019-12-06 07:00:00 7.8 3 Sudeste 9 Sur 0 -- -- 87
2019-12-06 06:00:00 7.5 3 Sudeste 13 Norte 0 -- -- 96
2019-12-06 05:00:00 7.8 6 Nordeste 11 Norte 0 -- -- 90
2019-12-06 04:00:00 7.7 8 Norte 12 Norte 0 -- -- 94
2019-12-06 03:00:00 7.6 0 Calma 8 Norte 0 -- -- 84
2019-12-06 02:00:00 7.1 5 Norte 9 Noroeste 0 -- -- 98
2019-12-06 01:00:00 7.1 6 Este 17 Sudeste 0 -- -- 99
2019-12-06 00:00:00 7.1 13 Sudeste 17 Sudeste 0 -- -- 99
2019-12-05 23:00:00 7.1 12 Sudeste 15 Sudeste 0 -- -- 99
2019-12-05 22:00:00 7.3 13 Sudeste 15 Sudeste 0 -- -- 99
2019-12-05 21:00:00 7.5 8 Sudeste 13 Este 0 -- -- 96
2019-12-05 20:00:00 7.6 8 Nordeste 12 Nordeste 0 -- -- 99
2019-12-05 19:00:00 7.5 6 Nordeste 15 Sudeste 0 -- -- 99
2019-12-05 18:00:00 7.7 10 Sudeste 15 Sudeste 0 -- -- 99
2019-12-05 17:00:00 8.3 9 Sudeste 17 Sudeste 0 -- -- 98
2019-12-05 16:00:00 9.1 14 Sudeste 21 Sur 0 -- -- 95
2019-12-05 15:00:00 8.4 9 Sur 21 Sur 0 -- -- 99
2019-12-05 14:00:00 9.8 9 Sur 22 Sudoeste 0 -- -- 99
2019-12-05 13:00:00 11.8 0 Calma 14 Sudoeste 0 -- -- 80
2019-12-05 12:00:00 11.4 6 Sur 13 Sur 0 -- -- 79
2019-12-05 11:00:00 10.2 3 Oeste 9 Sur 0 -- -- 80
2019-12-05 10:00:00 10.2 5 Sur 11 Sur 0 -- -- 79
2019-12-05 09:00:00 7.9 3 Nordeste 8 Sudeste 0 -- -- 85
2019-12-05 08:00:00 7.2 8 Sudeste 12 Sudeste 0 -- -- 85
2019-12-05 07:00:00 6.9 9 Sudeste 17 Sudeste 0 -- -- 91
2019-12-05 06:00:00 7.1 6 Nordeste 13 Nordeste 0 -- -- 91
2019-12-05 05:00:00 7.2 8 Nordeste 12 Nordeste 0 -- -- 88
2019-12-05 04:00:00 6.9 8 Este 16 Norte 0 -- -- 89
2019-12-05 03:00:00 6.6 13 Norte 21 Norte 0 -- -- 99
2019-12-05 02:00:00 7.4 6 Nordeste 15 Sur 0 -- -- 86
2019-12-05 01:00:00 6.9 13 Sur 17 Sudeste 0 -- -- 99
2019-12-05 00:00:00 6.8 12 Sudeste 20 Sur 0 -- -- 99
2019-12-04 23:00:00 6.8 16 Sudeste 25 Sudeste 0 -- -- 97
2019-12-04 22:00:00 6.7 21 Sudeste 25 Sudeste 0 -- -- 95
2019-12-04 21:00:00 6 17 Sudeste 26 Sur 0 -- -- 99
2019-12-04 20:00:00 6.3 20 Sur 30 Sudeste 0 -- -- 98
2019-12-04 19:00:00 6.7 19 Sudeste 33 Sudeste 0 -- -- 92
2019-12-04 18:00:00 5.9 23 Sudeste 36 Sudeste 0 -- -- 96
2019-12-04 17:00:00 6.3 23 Sudeste 33 Sudeste 0 -- -- 99
2019-12-04 16:00:00 6.9 19 Sudeste 24 Sudeste 0 -- -- 99
2019-12-04 15:00:00 6.4 13 Sudeste 18 Sudeste 0.2 -- -- 99
2019-12-04 14:00:00 6.1 9 Nordeste 22 Sur 1.9 -- -- 99
2019-12-04 13:00:00 6.3 19 Sur 41 Sur 3.8 -- -- 99
2019-12-04 12:00:00 5.2 29 Sur 47 Sudeste 9.5 -- -- 99
2019-12-04 11:00:00 8.7 24 Sudeste 59 Sudeste 1.6 -- -- 99
2019-12-04 10:00:00 8.5 32 Sudeste 62 Sudeste 9.9 -- -- 99
2019-12-04 09:00:00 6.7 41 Sur 68 Sur 5.5 -- -- 99
2019-12-04 08:00:00 6.3 36 Sur 67 Sur 2 -- -- 99
2019-12-04 07:00:00 8.4 31 Sudeste 66 Sudeste 5.9 -- -- 99
2019-12-04 06:00:00 4.6 51 Sur 87 Sudeste 18.8 -- -- 99
2019-12-04 05:00:00 9.6 33 Sudeste 76 Sudeste 4.3 -- -- 99
2019-12-04 04:00:00 5.6 28 Sur 68 Sur 18.8 -- -- 99
2019-12-04 03:00:00 5.1 38 Sur 91 Sudeste 16.8 -- -- 99
2019-12-04 02:00:00 10.1 37 Este 90 Sudeste 13.4 -- -- 99
2019-12-04 01:00:00 9.9 32 Sudeste 63 Sudeste 5.9 -- -- 99
2019-12-04 00:00:00 9.9 27 Este 70 Sudeste 2.9 -- -- 99
2019-12-03 23:00:00 9.7 32 Sudeste 65 Sudeste 9.4 -- -- 99
2019-12-03 22:00:00 9.5 30 Este 55 Sudeste 0.1 -- -- 99
2019-12-03 21:00:00 9.1 29 Este 56 Este 0 -- -- 99
2019-12-03 20:00:00 8.5 33 Este 71 Este 0 -- -- 99
2019-12-03 19:00:00 7.6 39 Este 65 Este 0 -- -- 99
2019-12-03 18:00:00 7.3 29 Este 55 Este 0 -- -- 99
2019-12-03 17:00:00 7.5 21 Nordeste 41 Nordeste 0 -- -- 86
2019-12-03 16:00:00 7.5 25 Nordeste 49 Nordeste 0 -- -- 88
2019-12-03 15:00:00 7.4 19 Nordeste 37 Norte 0 -- -- 99
2019-12-03 14:00:00 7.3 17 Nordeste 24 Nordeste 0 -- -- 95
2019-12-03 13:00:00 8.4 12 Nordeste 26 Sudeste 0 -- -- 83
2019-12-03 12:00:00 5.3 18 Norte 34 Nordeste 0 -- -- 99
2019-12-03 11:00:00 5.2 18 Norte 35 Nordeste 0 -- -- 99
2019-12-03 10:00:00 5 24 Norte 40 Norte 0 -- -- 99
2019-12-03 09:00:00 4.5 26 Nordeste 38 Nordeste 0 -- -- 99
2019-12-03 08:00:00 4.6 18 Nordeste 31 Nordeste 0 -- -- 99
2019-12-03 07:00:00 5 21 Nordeste 30 Nordeste 0 -- -- 99
2019-12-03 06:00:00 5.1 22 Nordeste 34 Nordeste 0 -- -- 98
2019-12-03 05:00:00 5.1 21 Nordeste 31 Nordeste 0 -- -- 99
2019-12-03 04:00:00 5.2 19 Nordeste 28 Nordeste 0 -- -- 98
2019-12-03 03:00:00 5.2 21 Nordeste 37 Este 0.3 -- -- 97
2019-12-03 02:00:00 5.2 22 Este 38 Nordeste 0.1 -- -- 98
2019-12-03 01:00:00 5.2 21 Nordeste 44 Nordeste 0 -- -- 99
2019-12-03 00:00:00 5.3 19 Nordeste 37 Nordeste 0 -- -- 94
2019-12-02 23:00:00 5.6 21 Este 39 Nordeste 0 -- -- 92
2019-12-02 22:00:00 5.8 22 Este 40 Nordeste 0 -- -- 93
2019-12-02 21:00:00 5.5 24 Este 45 Nordeste 0 -- -- 94
2019-12-02 20:00:00 5.1 24 Este 40 Este 0 -- -- 99
2019-12-02 19:00:00 5.8 20 Nordeste 33 Nordeste 0 -- -- 98
2019-12-02 18:00:00 5.3 15 Este 24 Este 0 -- -- 99
2019-12-02 17:00:00 6.5 17 Nordeste 27 Este 0 -- -- 99
2019-12-02 16:00:00 7.4 16 Este 26 Este 0 -- -- 99
2019-12-02 15:00:00 7.6 21 Este 33 Este 0 -- -- 99
2019-12-02 14:00:00 8.2 14 Este 33 Sudeste 0 -- -- 99
2019-12-02 13:00:00 8.1 23 Este 39 Este 0.1 -- -- 99
2019-12-02 12:00:00 7.4 26 Sudeste 42 Sudeste 0 -- -- 99
2019-12-02 11:00:00 7.7 28 Sudeste 38 Este 0 -- -- 99
2019-12-02 10:00:00 7.5 24 Este 40 Este 0 -- -- 99
2019-12-02 09:00:00 7.7 27 Este 44 Sudeste 0.1 -- -- 99
2019-12-02 08:00:00 8 30 Sudeste 40 Sudeste 0 -- -- 99
2019-12-02 07:00:00 8.2 15 Nordeste 34 Sudeste 0.4 -- -- 99
2019-12-02 06:00:00 8.4 14 Este 22 Sudeste 2.6 -- -- 99
2019-12-02 05:00:00 9 13 Sudeste 21 Nordeste 0.3 -- -- 99
2019-12-02 04:00:00 8.9 14 Este 29 Sudeste 0 -- -- 99
2019-12-02 03:00:00 8.9 19 Este 24 Este 0 -- -- 99
2019-12-02 02:00:00 8.7 18 Este 24 Este 0 -- -- 99
2019-12-02 01:00:00 8.9 10 Sudeste 19 Sudeste 0 -- -- 99
2019-12-02 00:00:00 8.7 12 Sudeste 15 Sudeste 0 -- -- 99
2019-12-01 23:00:00 8.7 3 Sudeste 15 Sudeste 0 -- -- 99
2019-12-01 22:00:00 8.8 13 Sudeste 16 Sudeste 0 -- -- 99
2019-12-01 21:00:00 8.7 8 Sudeste 11 Sur 0 -- -- 99
2019-12-01 20:00:00 8.4 9 Sudeste 14 Sudeste 0 -- -- 99
2019-12-01 19:00:00 8.9 8 Sudeste 10 Sudeste 0 -- -- 99
2019-12-01 18:00:00 8.8 6 Noroeste 10 Nordeste 0 -- -- 99
2019-12-01 17:00:00 9.1 5 Norte 18 Noroeste 0 -- -- 99
2019-12-01 16:00:00 9.4 7 Noroeste 31 Oeste 0 -- -- 99
2019-12-01 15:00:00 9.3 12 Noroeste 26 Noroeste 0 -- -- 99
2019-12-01 14:00:00 9.9 11 Oeste 29 Noroeste 0 -- -- 99
2019-12-01 13:00:00 9.8 8 Noroeste 24 Oeste 0 -- -- 99
2019-12-01 12:00:00 9.9 7 Sudoeste 23 Sur 0 -- -- 99
2019-12-01 11:00:00 10 11 Sur 26 Sudeste 0 -- -- 99
2019-12-01 10:00:00 9.7 19 Sur 28 Sudoeste 0 -- -- 99
2019-12-01 09:00:00 9.6 14 Sur 31 Sur 0 -- -- 99
2019-12-01 08:00:00 9.4 22 Sur 35 Sur 0 -- -- 99
2019-12-01 07:00:00 9.1 22 Sur 33 Sur 0 -- -- 99
2019-12-01 06:00:00 9 16 Sur 27 Sudoeste 0 -- -- 99
2019-12-01 05:00:00 9.3 17 Sur 34 Sudoeste 0 -- -- 99
2019-12-01 04:00:00 9.7 19 Oeste 28 Oeste 0 -- -- 99
2019-12-01 03:00:00 9.6 18 Sur 24 Sudoeste 0 -- -- 99
2019-12-01 02:00:00 9.6 15 Sur 41 Sudoeste 0 -- -- 99
2019-12-01 01:00:00 9.9 27 Sudoeste 45 Sudoeste 0 -- -- 97
2019-12-01 00:00:00 9.7 32 Sudoeste 44 Sudoeste 0 -- -- 90
2019-11-30 23:00:00 9.2 30 Sur 41 Sudoeste 0 -- -- 98
2019-11-30 22:00:00 9.5 27 Sur 42 Sudoeste 0 -- -- 99
2019-11-30 21:00:00 9.3 28 Sur 49 Sudoeste 0 -- -- 99
2019-11-30 20:00:00 9.2 29 Sur 47 Sudoeste 0 -- -- 99
2019-11-30 19:00:00 9.7 25 Sur 38 Sur 0 -- -- 99
2019-11-30 18:00:00 9.7 27 Sur 39 Sur 0 -- -- 99
2019-11-30 17:00:00 10.1 27 Sur 42 Sur 0 -- -- 99
2019-11-30 16:00:00 10.1 23 Sur 36 Sur 0 -- -- 99
2019-11-30 15:00:00 10.8 13 Sur 25 Sudoeste 0 -- -- 99
2019-11-30 14:00:00 11.1 15 Sur 27 Sudoeste 0 -- -- 99
2019-11-30 13:00:00 12 16 Sur 29 Sur 0 -- -- 91
2019-11-30 12:00:00 13.7 16 Sur 23 Sur 0 -- -- 72
2019-11-30 11:00:00 13.4 14 Sur 22 Sur 0 -- -- 71
2019-11-30 10:00:00 12.6 14 Sur 21 Sur 0 -- -- 71
2019-11-30 09:00:00 12 10 Sur 18 Sudoeste 0 -- -- 75
2019-11-30 08:00:00 11.2 9 Sudoeste 15 Sudoeste 0 -- -- 72
2019-11-30 07:00:00 10.1 10 Sur 14 Sur 0 -- -- 81
2019-11-30 06:00:00 10.5 12 Sur 14 Sur 0 -- -- 78
2019-11-30 05:00:00 10.7 11 Sudoeste 13 Sur 0 -- -- 79
2019-11-30 04:00:00 10.5 8 Sur 10 Sur 0 -- -- 79
2019-11-30 03:00:00 10.5 0 Calma 7 Sudoeste 0 -- -- 79
2019-11-30 02:00:00 10.4 5 Norte 7 Norte 0 -- -- 79
2019-11-30 01:00:00 10 2 Norte 10 Noroeste 0 -- -- 81
2019-11-30 00:00:00 9.7 6 Noroeste 10 Noroeste 0 -- -- 84
2019-11-29 23:00:00 10.2 8 Noroeste 14 Noroeste 0 -- -- 82
2019-11-29 22:00:00 10.5 8 Norte 21 Noroeste 0 -- -- 80
2019-11-29 21:00:00 10.5 16 Norte 27 Noroeste 0 -- -- 80
2019-11-29 20:00:00 10.5 21 Noroeste 33 Noroeste 0 -- -- 81
2019-11-29 19:00:00 10.4 25 Noroeste 34 Noroeste 0 -- -- 83
2019-11-29 18:00:00 10.5 19 Noroeste 24 Norte 0 -- -- 86
2019-11-29 17:00:00 11.4 11 Noroeste 18 Noroeste 0 -- -- 80
2019-11-29 16:00:00 11.8 14 Noroeste 20 Noroeste 0 -- -- 82
2019-11-29 15:00:00 11.6 9 Norte 25 Norte 0 -- -- 80
2019-11-29 14:00:00 12.6 16 Noroeste 37 Noroeste 0 -- -- 76
2019-11-29 13:00:00 12.7 26 Noroeste 51 Noroeste 0 -- -- 73
2019-11-29 12:00:00 12.8 31 Noroeste 45 Noroeste 0 -- -- 68
2019-11-29 11:00:00 12.7 28 Noroeste 42 Noroeste 0 -- -- 67
2019-11-29 10:00:00 12.4 27 Noroeste 50 Noroeste 0 -- -- 67
2019-11-29 09:00:00 10.5 32 Noroeste 57 Noroeste 0 -- -- 76
2019-11-29 08:00:00 10.4 41 Noroeste 58 Noroeste 0 -- -- 79
2019-11-29 07:00:00 10.2 36 Noroeste 42 Noroeste 0 -- -- 72
2019-11-29 06:00:00 9.7 28 Noroeste 35 Noroeste 0 -- -- 76
2019-11-29 05:00:00 9.9 28 Noroeste 41 Noroeste 0 -- -- 73
2019-11-29 04:00:00 9.1 35 Noroeste 48 Noroeste 0 -- -- 83
2019-11-29 03:00:00 7.9 24 Noroeste 39 Noroeste 0 -- -- 99
2019-11-29 02:00:00 8.6 15 Oeste 45 Oeste 0 -- -- 85
2019-11-29 01:00:00 9.1 17 Oeste 65 Sudoeste 0 -- -- 86
2019-11-29 00:00:00 9.2 19 Sudoeste 53 Oeste 0 -- -- 84
2019-11-28 23:00:00 9.6 23 Oeste 52 Oeste 0 -- -- 79
2019-11-28 22:00:00 9.3 18 Oeste 49 Sudoeste 0 -- -- 81
2019-11-28 21:00:00 8.8 21 Sur 36 Sudoeste 0 -- -- 85
2019-11-28 20:00:00 10.2 10 Oeste 32 Sudoeste 0 -- -- 64
2019-11-28 19:00:00 10.3 20 Sudoeste 35 Oeste 0 -- -- 67
2019-11-28 18:00:00 10.9 22 Oeste 38 Oeste 0 -- -- 57
2019-11-28 17:00:00 10.2 20 Oeste 33 Oeste 0 -- -- 62
2019-11-28 16:00:00 12.4 13 Oeste 27 Oeste 0 -- -- 63
2019-11-28 15:00:00 12.5 10 Oeste 28 Noroeste 0 -- -- 57
2019-11-28 14:00:00 13 13 Oeste 39 Noroeste 0 -- -- 53
2019-11-28 13:00:00 13.4 16 Oeste 41 Noroeste 0 -- -- 56
2019-11-28 12:00:00 12.4 21 Oeste 48 Oeste 0 -- -- 64
2019-11-28 11:00:00 12.2 23 Noroeste 41 Noroeste 0 -- -- 63
2019-11-28 10:00:00 10.8 28 Noroeste 57 Noroeste 0 -- -- 78
2019-11-28 09:00:00 9.5 33 Noroeste 61 Noroeste 0 -- -- 86
2019-11-28 08:00:00 8.2 34 Noroeste 62 Noroeste 0 -- -- 94
2019-11-28 07:00:00 8.5 26 Noroeste 55 Noroeste 0 -- -- 77
2019-11-28 06:00:00 8.2 32 Noroeste 62 Oeste 0 -- -- 88
2019-11-28 05:00:00 8.2 26 Noroeste 44 Noroeste 0 -- -- 91
2019-11-28 04:00:00 8.8 29 Noroeste 46 Noroeste 0 -- -- 74
2019-11-28 03:00:00 9 32 Noroeste 47 Noroeste 0 -- -- 76
2019-11-28 02:00:00 9.1 18 Noroeste 27 Noroeste 0 -- -- 76
2019-11-28 01:00:00 8.7 14 Noroeste 28 Noroeste 0 -- -- 78
2019-11-28 00:00:00 7.9 18 Noroeste 27 Noroeste 0 -- -- 96
2019-11-27 23:00:00 8.4 12 Oeste 23 Oeste 0 -- -- 90
2019-11-27 22:00:00 8.8 13 Oeste 32 Noroeste 0 -- -- 89
2019-11-27 21:00:00 9 15 Oeste 26 Oeste 0 -- -- 96
2019-11-27 20:00:00 9.4 16 Oeste 28 Noroeste 0 -- -- 81
2019-11-27 19:00:00 9.7 15 Noroeste 27 Noroeste 0 -- -- 81
2019-11-27 18:00:00 10 15 Noroeste 39 Noroeste 0 -- -- 80
2019-11-27 17:00:00 10.9 20 Noroeste 35 Noroeste 0 -- -- 75
2019-11-27 16:00:00 10.8 14 Noroeste 39 Noroeste 0 -- -- 85
2019-11-27 15:00:00 10.3 23 Norte 48 Norte 0 -- -- 91
2019-11-27 14:00:00 9.6 38 Norte 63 Noroeste 0 -- -- 99
2019-11-27 06:00:00 11.7 35 Oeste 72 Oeste 0 -- -- 85
2019-11-27 05:00:00 12.6 37 Oeste 84 Oeste 0 -- -- 82
2019-11-27 04:00:00 12.7 45 Oeste 89 Oeste 0 -- -- 81
2019-11-27 03:00:00 12.5 37 Sudoeste 67 Oeste 0 -- -- 81
2019-11-27 02:00:00 12.5 40 Sudoeste 78 Oeste 0 -- -- 81
2019-11-27 01:00:00 10.7 35 Sudoeste 62 Sudoeste 0 -- -- 99
2019-11-27 00:00:00 10.3 32 Sudoeste 46 Sudoeste 0 -- -- 99
2019-11-26 23:00:00 10 22 Sur 44 Sur 0 -- -- 99
2019-11-26 22:00:00 9.6 33 Sudoeste 48 Sudoeste 0 -- -- 99
2019-11-26 21:00:00 9.1 27 Sur 38 Sudoeste 0 -- -- 99
2019-11-26 20:00:00 9.2 23 Sudoeste 42 Sudoeste 0 -- -- 99
2019-11-26 19:00:00 10.6 22 Sudoeste 33 Oeste 0 -- -- 68
2019-11-26 18:00:00 9.3 22 Sudoeste 35 Sudoeste 0 -- -- 96
2019-11-26 17:00:00 9.7 21 Sur 30 Sudoeste 0 -- -- 94
2019-11-26 16:00:00 10.9 18 Sur 28 Sudoeste 0 -- -- 90
2019-11-26 15:00:00 11.4 19 Sur 27 Sur 0 -- -- 97
2019-11-26 14:00:00 11.5 14 Sudoeste 32 Sudoeste 0 -- -- 95
2019-11-26 13:00:00 11.8 15 Sur 27 Sudoeste 0 -- -- 91
2019-11-26 12:00:00 12.9 12 Oeste 28 Sudoeste 0 -- -- 76
2019-11-26 11:00:00 12.7 12 Sur 20 Sur 0 -- -- 76
2019-11-26 10:00:00 11.7 12 Sur 22 Sur 0 -- -- 78
2019-11-26 09:00:00 11.1 15 Sur 30 Sur 0 -- -- 80
2019-11-26 08:00:00 9.2 18 Sur 24 Sur 0 -- -- 85
2019-11-26 07:00:00 9.5 10 Sur 16 Sudoeste 0 -- -- 85
2019-11-26 06:00:00 10 8 Oeste 20 Oeste 0 -- -- 78
2019-11-26 05:00:00 9.3 12 Noroeste 23 Noroeste 0 -- -- 84
2019-11-26 04:00:00 9.3 17 Noroeste 27 Noroeste 0 -- -- 85
2019-11-26 03:00:00 9.4 22 Noroeste 30 Noroeste 0 -- -- 87
2019-11-26 02:00:00 9.5 21 Noroeste 28 Noroeste 0 -- -- 89
2019-11-26 01:00:00 9.6 14 Noroeste 22 Noroeste 0 -- -- 84
2019-11-26 00:00:00 10 9 Oeste 18 Oeste 0 -- -- 78
2019-11-25 23:00:00 9.9 8 Sur 12 Sur 0 -- -- 79
2019-11-25 22:00:00 9.7 5 Sudeste 11 Noroeste 0 -- -- 77
2019-11-25 21:00:00 9.7 8 Norte 20 Noroeste 0 -- -- 82
2019-11-25 20:00:00 9.6 17 Noroeste 24 Norte 0 -- -- 84
2019-11-25 19:00:00 9.1 22 Norte 34 Norte 0 -- -- 87
2019-11-25 18:00:00 8.8 27 Norte 39 Noroeste 0 -- -- 88
2019-11-25 17:00:00 8.3 33 Noroeste 40 Noroeste 0 -- -- 91
2019-11-25 16:00:00 9.1 31 Noroeste 45 Noroeste 0 -- -- 86
2019-11-25 15:00:00 9.7 36 Noroeste 49 Noroeste 0 -- -- 81
2019-11-25 14:00:00 11.5 31 Noroeste 42 Noroeste 0 -- -- 71
2019-11-25 13:00:00 11.3 30 Noroeste 45 Noroeste 0 -- -- 67
2019-11-25 12:00:00 11.4 24 Noroeste 47 Noroeste 0 -- -- 69
2019-11-25 11:00:00 11.5 24 Noroeste 42 Noroeste 0 -- -- 70
2019-11-25 10:00:00 8.3 23 Noroeste 41 Noroeste 0 -- -- 86
2019-11-25 09:00:00 8.3 29 Noroeste 56 Noroeste 0 -- -- 92
2019-11-25 08:00:00 6.7 30 Noroeste 58 Oeste 0 -- -- 89
2019-11-25 07:00:00 6.3 34 Noroeste 58 Noroeste 0 -- -- 96
2019-11-25 06:00:00 5.9 33 Noroeste 55 Noroeste 0 -- -- 97
2019-11-25 05:00:00 5.7 33 Noroeste 52 Noroeste 0 -- -- 87
2019-11-25 04:00:00 5.2 27 Noroeste 46 Noroeste 0 -- -- 95
2019-11-25 03:00:00 5.2 28 Noroeste 45 Noroeste 0 -- -- 99
2019-11-25 02:00:00 5.2 32 Noroeste 56 Noroeste 0 -- -- 99
2019-11-25 01:00:00 5.2 44 Noroeste 65 Noroeste 0 -- -- 99
2019-11-25 00:00:00 5.5 40 Noroeste 59 Norte 0 -- -- 99
2019-11-24 23:00:00 5.3 36 Noroeste 51 Noroeste 0 -- -- 99
2019-11-24 22:00:00 5.4 26 Noroeste 42 Norte 0 -- -- 99
2019-11-24 21:00:00 6 29 Noroeste 50 Noroeste 0 -- -- 99
2019-11-24 20:00:00 5.8 35 Noroeste 52 Noroeste 0 -- -- 99
2019-11-24 19:00:00 5.3 30 Noroeste 48 Noroeste 0 -- -- 99
2019-11-24 18:00:00 5.2 31 Noroeste 53 Noroeste 0 -- -- 99
2019-11-24 17:00:00 5.2 45 Noroeste 61 Norte 0 -- -- 99
2019-11-24 16:00:00 5.6 36 Noroeste 57 Noroeste 0 -- -- 99
2019-11-24 15:00:00 5.4 37 Noroeste 63 Noroeste 0 -- -- 99
2019-11-24 14:00:00 5.2 36 Noroeste 71 Noroeste 0 -- -- 99
2019-11-24 13:00:00 5.2 41 Noroeste 71 Noroeste 0 -- -- 99
2019-11-24 12:00:00 5.3 45 Noroeste 67 Noroeste 0 -- -- 99
2019-11-24 11:00:00 5.2 44 Noroeste 74 Noroeste 0 -- -- 99
2019-11-24 10:00:00 5.2 40 Noroeste 76 Noroeste 0 -- -- 99
2019-11-24 09:00:00 5.1 48 Noroeste 98 Noroeste 0 -- -- 99
2019-11-24 08:00:00 5.1 50 Noroeste 92 Noroeste 0 -- -- 99
2019-11-24 07:00:00 5.1 55 Noroeste 92 Noroeste 0 -- -- 99
2019-11-24 06:00:00 5.2 59 Noroeste 98 Noroeste 0 -- -- 97
2019-11-24 05:00:00 5.2 58 Noroeste 95 Noroeste 0 -- -- 99
2019-11-24 04:00:00 5.2 48 Noroeste 103 Noroeste 0 -- -- 99
2019-11-24 03:00:00 5.2 51 Noroeste 92 Noroeste 0 -- -- 99
2019-11-24 02:00:00 5.2 55 Noroeste 91 Norte 0 -- -- 99
2019-11-24 01:00:00 5.2 50 Noroeste 84 Noroeste 0 -- -- 99
2019-11-24 00:00:00 5.2 52 Noroeste 81 Noroeste 0 -- -- 99
2019-11-23 23:00:00 5.3 48 Noroeste 98 Oeste 0 -- -- 93
2019-11-23 22:00:00 5.6 58 Noroeste 100 Noroeste 0 -- -- 94
2019-11-23 21:00:00 5.9 61 Noroeste 114 Noroeste 0 -- -- 93
2019-11-23 20:00:00 6.4 70 Noroeste 127 Noroeste 0 -- -- 84
2019-11-23 19:00:00 5.7 78 Noroeste 127 Noroeste 0 -- -- 91
2019-11-23 18:00:00 5.3 66 Noroeste 120 Noroeste 0 -- -- 94
2019-11-23 17:00:00 5.2 69 Noroeste 114 Norte 0.2 -- -- 99
2019-11-23 16:00:00 5.2 69 Noroeste 105 Noroeste 0 -- -- 99
2019-11-23 15:00:00 5.3 53 Noroeste 94 Noroeste 0.1 -- -- 99
2019-11-23 14:00:00 6.5 52 Noroeste 79 Noroeste 0 -- -- 99
2019-11-23 13:00:00 5.2 40 Noroeste 75 Noroeste 4.6 -- -- 99
2019-11-23 12:00:00 7.2 23 Noroeste 57 Oeste 0.2 -- -- 99
2019-11-23 11:00:00 6.8 19 Oeste 58 Oeste 0.1 -- -- 99
2019-11-23 10:00:00 7.1 31 Oeste 57 Oeste 0 -- -- 98
2019-11-23 09:00:00 8.1 27 Sudoeste 48 Sudoeste 0 -- -- 89
2019-11-23 08:00:00 7.8 25 Sudoeste 76 Oeste 0 -- -- 86
2019-11-23 07:00:00 8.4 44 Oeste 78 Oeste 0 -- -- 86
2019-11-23 06:00:00 8.1 37 Oeste 69 Oeste 0 -- -- 90
2019-11-23 05:00:00 8.3 30 Sudoeste 61 Sudoeste 0 -- -- 89
2019-11-23 04:00:00 9.4 30 Sudoeste 63 Oeste 0.1 -- -- 85
2019-11-23 03:00:00 9.9 26 Sudoeste 51 Sudoeste 0.9 -- -- 99
2019-11-23 02:00:00 10.5 26 Sudoeste 63 Sudoeste 6.7 -- -- 99
2019-11-23 01:00:00 10.5 33 Sudoeste 76 Sudoeste 5.2 -- -- 99
2019-11-23 00:00:00 10.8 41 Sur 74 Sudoeste 4.2 -- -- 99
2019-11-22 23:00:00 10.6 32 Sur 77 Sur 7.3 -- -- 99
2019-11-22 22:00:00 10 31 Sur 77 Sur 9.1 -- -- 99
2019-11-22 21:00:00 10.1 37 Sur 82 Sur 9.8 -- -- 99
2019-11-22 20:00:00 10.3 27 Sur 68 Sur 3.9 -- -- 99
2019-11-22 19:00:00 10 32 Sur 67 Sur 1.7 -- -- 99
2019-11-22 18:00:00 10.4 33 Sur 66 Sur 1.6 -- -- 99
2019-11-22 17:00:00 10.4 28 Sur 59 Sur 0.2 -- -- 99
2019-11-22 16:00:00 10.3 28 Sur 57 Sur 0 -- -- 99
2019-11-22 15:00:00 10.2 27 Sur 52 Sur 0.1 -- -- 99
2019-11-22 14:00:00 9.8 28 Sur 55 Sur 0.1 -- -- 99
2019-11-22 13:00:00 9.7 24 Sur 46 Sudoeste 0.4 -- -- 99
2019-11-22 12:00:00 9.8 22 Sur 42 Sur 0 -- -- 99
2019-11-22 11:00:00 9.5 29 Sur 44 Sur 0 -- -- 99
2019-11-22 10:00:00 9.2 19 Sur 33 Sur 0 -- -- 99
2019-11-22 09:00:00 8.6 18 Sur 29 Sur 0.5 -- -- 99
2019-11-22 08:00:00 8 17 Sur 25 Sur 0 -- -- 99
2019-11-22 07:00:00 8 22 Sur 30 Sur 0 -- -- 99
2019-11-22 06:00:00 8.5 19 Sur 33 Sur 0 -- -- 99
2019-11-22 05:00:00 8 20 Sur 30 Sur 0.1 -- -- 99
2019-11-22 04:00:00 7.3 16 Sur 23 Sur 0 -- -- 99
2019-11-22 03:00:00 7.6 14 Sur 27 Sudoeste 0 -- -- 99
2019-11-22 02:00:00 7.7 18 Sur 27 Sudoeste 0 -- -- 99
2019-11-22 01:00:00 8.1 15 Sur 29 Sudoeste 0 -- -- 99
2019-11-22 00:00:00 8 18 Sur 30 Sur 0 -- -- 99
2019-11-21 23:00:00 7.6 18 Sur 35 Sur 0 -- -- 99
2019-11-21 22:00:00 7.2 19 Sur 32 Sudoeste 0 -- -- 99
2019-11-21 21:00:00 7 17 Sur 31 Sur 0 -- -- 99
2019-11-21 20:00:00 6.6 19 Sur 37 Sudoeste 0 -- -- 99
2019-11-21 19:00:00 6.3 21 Sudoeste 36 Sudoeste 0 -- -- 98
2019-11-21 18:00:00 5.8 15 Oeste 32 Oeste 0 -- -- 99
2019-11-21 17:00:00 5.8 10 Oeste 35 Noroeste 0 -- -- 99
2019-11-21 16:00:00 6.6 11 Oeste 28 Oeste 0 -- -- 93
2019-11-21 15:00:00 7.4 10 Oeste 32 Oeste 0 -- -- 91
2019-11-21 14:00:00 7.4 13 Oeste 37 Oeste 0 -- -- 94
2019-11-21 13:00:00 7.2 11 Oeste 30 Oeste 0 -- -- 96
2019-11-21 12:00:00 7.2 12 Sudoeste 30 Sudoeste 0 -- -- 99
2019-11-21 11:00:00 6.7 19 Sudoeste 31 Sudoeste 0 -- -- 97
2019-11-21 10:00:00 6.5 16 Oeste 36 Oeste 0 -- -- 99
2019-11-21 09:00:00 5.7 14 Oeste 37 Oeste 0 -- -- 99
2019-11-21 08:00:00 5.3 17 Oeste 37 Oeste 0 -- -- 99
2019-11-21 07:00:00 5.1 17 Oeste 38 Oeste 0 -- -- 99
2019-11-21 06:00:00 5.1 18 Sudoeste 37 Oeste 0.1 -- -- 99
2019-11-21 05:00:00 5.2 16 Sudoeste 34 Oeste 0.4 -- -- 99
2019-11-21 04:00:00 5.2 12 Sudoeste 25 Sudoeste 0.6 -- -- 99
2019-11-21 03:00:00 6 13 Sur 23 Sudoeste 0 -- -- 99
2019-11-21 02:00:00 5.9 12 Sur 24 Sur 0 -- -- 99
2019-11-21 01:00:00 5.4 12 Sur 24 Sudoeste 0 -- -- 99
2019-11-21 00:00:00 5.2 15 Sur 26 Sudoeste 0 -- -- 99
2019-11-20 23:00:00 5.2 15 Sur 26 Sudoeste 0 -- -- 99
2019-11-20 22:00:00 5.7 15 Sur 33 Sur 0 -- -- 99
2019-11-20 21:00:00 6.4 13 Sur 31 Sur 0 -- -- 99
2019-11-20 20:00:00 6.4 16 Sur 30 Sur 0 -- -- 99
2019-11-20 19:00:00 6.1 21 Sur 31 Sur 0 -- -- 99
2019-11-20 18:00:00 5.1 19 Sur 28 Sur 0.1 -- -- 99
2019-11-20 17:00:00 5.2 18 Sur 27 Sur 0 -- -- 99
2019-11-20 16:00:00 5.2 17 Sudeste 22 Sudeste 0.1 -- -- 99
2019-11-20 15:00:00 5.4 16 Sur 24 Sur 0 -- -- 99
2019-11-20 14:00:00 5.9 13 Sur 24 Sur 0 -- -- 97
2019-11-20 13:00:00 6.1 15 Sur 25 Sur 0 -- -- 92
2019-11-20 12:00:00 6.3 16 Sur 22 Sur 0 -- -- 94
2019-11-20 11:00:00 5.2 17 Sur 23 Sur 0 -- -- 93
2019-11-20 10:00:00 4.8 18 Sur 23 Sur 0 -- -- 99
2019-11-20 09:00:00 4.5 9 Sur 13 Sur 0 -- -- 99
2019-11-20 08:00:00 3.9 8 Sur 14 Sur 0 -- -- 99
2019-11-20 07:00:00 3.8 13 Sudoeste 19 Sur 0 -- -- 99
2019-11-20 06:00:00 3.7 12 Sur 19 Sudoeste 0 -- -- 99
2019-11-20 05:00:00 3.8 13 Sudoeste 19 Sudoeste 0 -- -- 92
2019-11-20 04:00:00 3.9 12 Sudoeste 20 Sudoeste 0 -- -- 91
2019-11-20 03:00:00 3.8 12 Oeste 19 Oeste 0 -- -- 92
2019-11-20 02:00:00 3.6 10 Oeste 14 Oeste 0 -- -- 92
2019-11-20 01:00:00 3.1 6 Oeste 13 Sudoeste 0 -- -- 98
2019-11-20 00:00:00 3.1 7 Oeste 17 Oeste 0 -- -- 97
2019-11-19 23:00:00 3.4 8 Oeste 21 Oeste 0 -- -- 92
2019-11-19 22:00:00 3.2 11 Oeste 19 Oeste 0 -- -- 93
2019-11-19 21:00:00 3 13 Noroeste 17 Oeste 0 -- -- 93
2019-11-19 20:00:00 3.5 8 Oeste 17 Noroeste 0 -- -- 86
2019-11-19 19:00:00 3.6 5 Noroeste 22 Noroeste 0 -- -- 84
2019-11-19 18:00:00 3.5 10 Noroeste 18 Noroeste 0 -- -- 87
2019-11-19 17:00:00 5 8 Noroeste 20 Noroeste 0 -- -- 85
2019-11-19 16:00:00 6.5 14 Noroeste 21 Noroeste 0 -- -- 84
2019-11-19 15:00:00 7.1 11 Noroeste 28 Oeste 0 -- -- 79
2019-11-19 14:00:00 7.4 13 Oeste 32 Oeste 0 -- -- 78
2019-11-19 13:00:00 6.3 9 Noroeste 25 Noroeste 0 -- -- 89
2019-11-19 12:00:00 6.4 12 Noroeste 29 Noroeste 0 -- -- 93
2019-11-19 11:00:00 6 20 Noroeste 32 Noroeste 0 -- -- 92
2019-11-19 10:00:00 5.3 18 Noroeste 25 Noroeste 0 -- -- 94
2019-11-19 09:00:00 4.9 14 Noroeste 31 Noroeste 0 -- -- 98
2019-11-19 08:00:00 3.6 17 Noroeste 40 Noroeste 0 -- -- 99
2019-11-19 07:00:00 3 16 Oeste 27 Oeste 0 -- -- 99
2019-11-19 06:00:00 2.8 14 Noroeste 22 Noroeste 0 -- -- 99
2019-11-19 05:00:00 3.1 17 Norte 24 Noroeste 0.1 -- -- 99
2019-11-19 04:00:00 3.2 18 Norte 37 Noroeste 0 -- -- 99
2019-11-19 03:00:00 3.1 26 Norte 35 Norte 0 -- -- 99
2019-11-19 02:00:00 3.5 25 Norte 44 Noroeste 0 -- -- 99
2019-11-19 01:00:00 3.5 31 Noroeste 37 Norte 0.1 -- -- 99
2019-11-19 00:00:00 3.1 24 Norte 54 Noroeste 1.2 -- -- 99
2019-11-18 23:00:00 4.1 33 Noroeste 69 Noroeste 1.1 -- -- 99
2019-11-18 22:00:00 3.6 25 Norte 49 Noroeste 0.2 -- -- 99
2019-11-18 21:00:00 3.8 32 Norte 63 Norte 0 -- -- 96
2019-11-18 20:00:00 3.5 37 Norte 61 Noroeste 0 -- -- 98
2019-11-18 19:00:00 3.2 43 Norte 74 Noroeste 0 -- -- 99
2019-11-18 18:00:00 3.4 51 Norte 72 Norte 0 -- -- 99
2019-11-18 17:00:00 3.9 41 Norte 69 Noroeste 0 -- -- 99
2019-11-18 16:00:00 4.8 42 Noroeste 62 Noroeste 0.3 -- -- 99
2019-11-18 15:00:00 4.8 41 Norte 62 Norte 0.9 -- -- 99
2019-11-18 14:00:00 5.2 29 Norte 55 Norte 3.9 -- -- 99
2019-11-18 13:00:00 5.7 23 Norte 50 Norte 0 -- -- 99
2019-11-18 12:00:00 5.1 38 Noroeste 53 Noroeste 0.8 -- -- 99
2019-11-18 11:00:00 5.1 42 Noroeste 71 Noroeste 0 -- -- 99
2019-11-18 10:00:00 5 51 Noroeste 74 Norte 0 -- -- 99
2019-11-18 09:00:00 5 57 Noroeste 73 Noroeste 0.1 -- -- 99
2019-11-18 08:00:00 5.1 55 Noroeste 70 Noroeste 5.2 -- -- 99
2019-11-18 07:00:00 6 45 Noroeste 55 Noroeste 1.3 -- -- 99
2019-11-18 06:00:00 5.5 24 Noroeste 37 Noroeste 0.9 -- -- 99
2019-11-18 05:00:00 6.1 27 Noroeste 42 Noroeste 0.5 -- -- 99
2019-11-18 04:00:00 5.7 16 Noroeste 33 Noroeste 0.4 -- -- 99
2019-11-18 03:00:00 5.7 15 Oeste 31 Oeste 0.9 -- -- 99
2019-11-18 02:00:00 6.2 18 Sudoeste 41 Sudoeste 1.9 -- -- 99
2019-11-18 01:00:00 6.6 23 Sudoeste 40 Oeste 0.4 -- -- 99
2019-11-18 00:00:00 6.7 22 Sudoeste 39 Sudoeste 0 -- -- 99
2019-11-17 23:00:00 6.4 16 Sur 26 Sudoeste 0 -- -- 99
2019-11-17 22:00:00 6 15 Sur 30 Oeste 0 -- -- 99
2019-11-17 21:00:00 6.2 17 Sudoeste 40 Sudoeste 0 -- -- 95
2019-11-17 20:00:00 6 25 Sudoeste 48 Sudoeste 0 -- -- 93
2019-11-17 19:00:00 5.3 20 Sudoeste 45 Oeste 0 -- -- 97
2019-11-17 18:00:00 5.2 21 Sudoeste 48 Oeste 0 -- -- 85
2019-11-17 17:00:00 5.5 21 Oeste 40 Oeste 0 -- -- 76
2019-11-17 16:00:00 6.4 14 Oeste 39 Oeste 0 -- -- 77
2019-11-17 15:00:00 5.9 15 Oeste 44 Oeste 0 -- -- 89
2019-11-17 14:00:00 5.8 11 Oeste 38 Sudoeste 0 -- -- 89
2019-11-17 13:00:00 6.9 12 Oeste 41 Noroeste 0 -- -- 79
2019-11-17 12:00:00 6.3 15 Oeste 37 Oeste 0 -- -- 78
2019-11-17 11:00:00 7.6 19 Noroeste 38 Oeste 0 -- -- 72
2019-11-17 10:00:00 7.4 18 Oeste 47 Oeste 0 -- -- 76
2019-11-17 09:00:00 6.5 20 Noroeste 45 Noroeste 0 -- -- 77
2019-11-17 08:00:00 5 23 Oeste 44 Noroeste 0 -- -- 83
2019-11-17 07:00:00 4.5 28 Noroeste 56 Oeste 0 -- -- 83
2019-11-17 06:00:00 4.7 31 Noroeste 67 Noroeste 0 -- -- 82
2019-11-17 05:00:00 4.6 42 Noroeste 73 Noroeste 0 -- -- 86
2019-11-17 04:00:00 4.4 50 Noroeste 107 Noroeste 0 -- -- 88
2019-11-17 03:00:00 4.5 56 Noroeste 95 Noroeste 0 -- -- 90
2019-11-17 02:00:00 4.5 53 Noroeste 105 Noroeste 0 -- -- 83
2019-11-17 01:00:00 4.7 57 Noroeste 92 Noroeste 0 -- -- 85
2019-11-17 00:00:00 4.6 60 Noroeste 98 Noroeste 0 -- -- 89
2019-11-16 23:00:00 3.7 56 Noroeste 85 Noroeste 0 -- -- 97
2019-11-16 22:00:00 2.8 54 Noroeste 92 Noroeste 0 -- -- 99
2019-11-16 21:00:00 3.4 41 Noroeste 67 Noroeste 0 -- -- 99
2019-11-16 20:00:00 4.5 39 Noroeste 64 Norte 0 -- -- 99
2019-11-16 19:00:00 4.2 37 Noroeste 64 Noroeste 3.5 -- -- 99
2019-11-16 18:00:00 4 33 Noroeste 53 Noroeste 0 -- -- 99
2019-11-16 17:00:00 3.6 41 Noroeste 53 Noroeste 0 -- -- 99
2019-11-16 16:00:00 3.3 33 Noroeste 41 Noroeste 0.1 -- -- 99
2019-11-16 15:00:00 3.9 21 Norte 43 Norte 0.2 -- -- 94
2019-11-16 14:00:00 3.8 25 Norte 46 Noroeste 1.5 -- -- 99
2019-11-16 13:00:00 5.2 20 Noroeste 32 Noroeste 0 -- -- 97
2019-11-16 12:00:00 4.9 21 Noroeste 27 Noroeste 0 -- -- 99
2019-11-16 11:00:00 4.4 18 Noroeste 30 Norte 0 -- -- 99
2019-11-16 10:00:00 4 19 Noroeste 26 Norte 0 -- -- 99
2019-11-16 09:00:00 3.8 15 Noroeste 28 Noroeste 0 -- -- 91
2019-11-16 08:00:00 3.4 20 Norte 28 Norte 0.1 -- -- 92
2019-11-16 07:00:00 3.2 23 Norte 30 Noroeste 0 -- -- 92
2019-11-16 06:00:00 3.3 28 Noroeste 32 Norte 0 -- -- 90
2019-11-16 05:00:00 3.5 14 Norte 25 Norte 0 -- -- 89
2019-11-16 04:00:00 3.1 23 Noroeste 48 Noroeste 0 -- -- 85
2019-11-16 03:00:00 2.2 40 Noroeste 51 Noroeste 0.5 -- -- 99
2019-11-16 02:00:00 2 35 Noroeste 55 Oeste 1.3 -- -- 99
2019-11-16 01:00:00 4.3 10 Sudoeste 30 Sur 0 -- -- 72
2019-11-16 00:00:00 4.5 15 Sur 24 Sudoeste 0 -- -- 82
2019-11-15 23:00:00 4.2 19 Sur 28 Sudoeste 0 -- -- 84
2019-11-15 22:00:00 3.9 19 Sudoeste 26 Sudoeste 0 -- -- 85
2019-11-15 21:00:00 3.9 16 Sudoeste 30 Oeste 0 -- -- 90
2019-11-15 20:00:00 3 11 Oeste 35 Oeste 0 -- -- 94
2019-11-15 19:00:00 3.1 12 Oeste 35 Oeste 0 -- -- 95
2019-11-15 18:00:00 3.6 14 Noroeste 36 Oeste 0 -- -- 99
2019-11-15 17:00:00 3.9 13 Oeste 32 Noroeste 0.2 -- -- 99
2019-11-15 16:00:00 5.1 8 Oeste 31 Oeste 0 -- -- 89
2019-11-15 15:00:00 5.4 15 Noroeste 32 Noroeste 0 -- -- 87
2019-11-15 14:00:00 4.5 12 Noroeste 35 Noroeste 0 -- -- 99
2019-11-15 13:00:00 4 19 Noroeste 38 Oeste 0 -- -- 99
2019-11-15 12:00:00 4.3 16 Noroeste 45 Oeste 0.2 -- -- 99
2019-11-15 11:00:00 4 31 Noroeste 50 Noroeste 0.1 -- -- 99
2019-11-15 10:00:00 3.7 33 Noroeste 59 Noroeste 0 -- -- 99
2019-11-15 09:00:00 4 40 Noroeste 74 Noroeste 0 -- -- 99
2019-11-15 08:00:00 4 33 Noroeste 65 Noroeste 0 -- -- 99
2019-11-15 07:00:00 4 26 Sudoeste 51 Sudoeste 0 -- -- 96
2019-11-15 06:00:00 3.5 23 Sudoeste 45 Sudoeste 0.1 -- -- 99
2019-11-15 05:00:00 3.7 28 Sur 51 Sudoeste 0.4 -- -- 99
2019-11-15 04:00:00 3.8 23 Oeste 49 Sudoeste 0.1 -- -- 99
2019-11-15 03:00:00 4.1 19 Sudoeste 34 Sudoeste 0 -- -- 99
2019-11-15 02:00:00 3.9 16 Sur 33 Sudoeste 0 -- -- 87
2019-11-15 01:00:00 4.2 18 Sudoeste 24 Sudoeste 0 -- -- 71
2019-11-15 00:00:00 4 10 Oeste 31 Noroeste 0 -- -- 69
2019-11-14 23:00:00 3.4 23 Noroeste 30 Oeste 0 -- -- 94
2019-11-14 22:00:00 4 22 Noroeste 33 Noroeste 0 -- -- 99
2019-11-14 21:00:00 4.3 23 Noroeste 35 Noroeste 0.1 -- -- 99
2019-11-14 20:00:00 3.7 26 Noroeste 51 Noroeste 0.7 -- -- 99
2019-11-14 19:00:00 4.5 19 Oeste 53 Noroeste 0 -- -- 99
2019-11-14 18:00:00 4.9 31 Noroeste 74 Oeste 0.2 -- -- 99
2019-11-14 17:00:00 5.2 27 Oeste 60 Oeste 1.8 -- -- 93
2019-11-14 16:00:00 5.1 33 Noroeste 60 Noroeste 0 -- -- 99
2019-11-14 15:00:00 6.8 22 Oeste 74 Oeste 1.3 -- -- 99
2019-11-14 14:00:00 7.3 39 Oeste 66 Oeste 0.1 -- -- 99
2019-11-14 13:00:00 8.7 27 Sudoeste 43 Sudoeste 0 -- -- 99
2019-11-14 12:00:00 9.6 26 Sudoeste 55 Sudoeste 2.7 -- -- 99
2019-11-14 11:00:00 10.9 21 Sudoeste 58 Sudoeste 3.1 -- -- 99
2019-11-14 10:00:00 10.6 28 Sur 68 Sudoeste 0 -- -- 99
2019-11-14 09:00:00 10.4 32 Sur 57 Sur 0.1 -- -- 99
2019-11-14 08:00:00 9.1 23 Sur 50 Sudoeste 0.1 -- -- 99
2019-11-14 07:00:00 8.4 23 Sur 44 Sur 0 -- -- 99
2019-11-14 06:00:00 7.8 24 Sur 48 Sur 0 -- -- 99
2019-11-14 05:00:00 7.3 27 Sur 42 Sur 0 -- -- 99
2019-11-14 04:00:00 7.2 25 Sur 41 Sur 0 -- -- 99
2019-11-14 03:00:00 6.8 24 Sur 35 Sur 0 -- -- 99
2019-11-14 02:00:00 6.6 17 Sudoeste 36 Oeste 0 -- -- --
2019-11-14 01:00:00 7 16 Oeste 33 Oeste 0 -- -- 62
2019-11-14 00:00:00 5 13 Sudoeste 30 Oeste 0 -- -- 99
2019-11-13 23:00:00 4.7 11 Oeste 24 Oeste 0 -- -- 99
2019-11-13 22:00:00 4.8 15 Noroeste 27 Noroeste 0 -- -- 99
2019-11-13 21:00:00 5.1 25 Noroeste 31 Noroeste 0 -- -- 99
2019-11-13 20:00:00 5.2 19 Norte 27 Norte 0.1 -- -- 99
2019-11-13 19:00:00 5.2 20 Norte 27 Noroeste 0 -- -- 99
2019-11-13 18:00:00 5.8 17 Norte 41 Noroeste 0.1 -- -- 99
2019-11-13 17:00:00 5.7 35 Noroeste 49 Noroeste 0.2 -- -- 99
2019-11-13 16:00:00 5.7 32 Noroeste 47 Noroeste 0.2 -- -- 99
2019-11-13 15:00:00 5.7 34 Noroeste 52 Noroeste 1.8 -- -- 99
2019-11-13 14:00:00 7 23 Norte 41 Noroeste 1.5 -- -- 99
2019-11-13 13:00:00 7 27 Norte 39 Noroeste 1.7 -- -- 99
2019-11-13 12:00:00 6.9 23 Noroeste 35 Noroeste 2 -- -- 99
2019-11-13 11:00:00 6.8 26 Noroeste 34 Noroeste 7.9 -- -- 99
2019-11-13 10:00:00 6.9 15 Noroeste 25 Oeste 1.5 -- -- 99
2019-11-13 09:00:00 6.6 15 Sudoeste 25 Oeste 0.6 -- -- 99
2019-11-13 08:00:00 7.3 14 Oeste 23 Oeste 0 -- -- 96
2019-11-13 07:00:00 6.9 8 Oeste 26 Oeste 0 -- -- 97
2019-11-13 06:00:00 6.6 17 Noroeste 34 Noroeste 0 -- -- 95
2019-11-13 05:00:00 6.7 21 Noroeste 58 Noroeste 0 -- -- 94
2019-11-13 04:00:00 6.9 14 Oeste 34 Noroeste 0 -- -- 90
2019-11-13 03:00:00 6.7 14 Noroeste 37 Noroeste 0 -- -- 93
2019-11-13 02:00:00 6.6 20 Noroeste 40 Noroeste 0 -- -- 90
2019-11-13 01:00:00 6.4 31 Noroeste 50 Noroeste 0 -- -- 87
2019-11-13 00:00:00 6.5 33 Noroeste 59 Noroeste 0 -- -- 87
2019-11-12 23:00:00 6.8 37 Noroeste 58 Noroeste 0 -- -- 90
2019-11-12 22:00:00 6.8 27 Noroeste 53 Noroeste 0 -- -- 91
2019-11-12 21:00:00 6.7 31 Noroeste 57 Noroeste 0 -- -- 95
2019-11-12 20:00:00 6.6 34 Noroeste 61 Noroeste 0 -- -- 98
2019-11-12 19:00:00 6.4 35 Noroeste 64 Oeste 0 -- -- 96
2019-11-12 18:00:00 5.7 37 Noroeste 69 Noroeste 0 -- -- 99
2019-11-12 17:00:00 6 42 Noroeste 58 Noroeste 0 -- -- 99
2019-11-12 16:00:00 6.9 31 Noroeste 54 Noroeste 0 -- -- 97
2019-11-12 15:00:00 7 36 Noroeste 61 Noroeste 0 -- -- 97
2019-11-12 14:00:00 7 40 Noroeste 53 Noroeste 0 -- -- 96
2019-11-12 13:00:00 7.4 33 Noroeste 49 Noroeste 0 -- -- 92
2019-11-12 12:00:00 6.4 18 Noroeste 32 Noroeste 0 -- -- 99
2019-11-12 11:00:00 6.1 20 Noroeste 37 Noroeste 0 -- -- 99
2019-11-12 10:00:00 5.8 17 Noroeste 26 Noroeste 0 -- -- 99
2019-11-12 09:00:00 5 18 Norte 35 Norte 0 -- -- 99
2019-11-12 08:00:00 5 18 Noroeste 28 Noroeste 0 -- -- 99
2019-11-12 07:00:00 5.2 21 Norte 36 Noroeste 0 -- -- 99
2019-11-12 06:00:00 5.7 23 Noroeste 37 Noroeste 0 -- -- 99
2019-11-12 05:00:00 6.4 22 Noroeste 32 Norte 0 -- -- 99
2019-11-12 04:00:00 5.7 18 Norte 36 Oeste 0 -- -- 99
2019-11-12 03:00:00 6.4 20 Noroeste 39 Norte 0 -- -- 99
2019-11-12 02:00:00 6.1 26 Noroeste 45 Oeste 0 -- -- 99
2019-11-12 01:00:00 5.3 31 Noroeste 41 Norte 0 -- -- 99
2019-11-12 00:00:00 5.2 27 Noroeste 42 Norte 0 -- -- 90
2019-11-11 23:00:00 5.1 35 Noroeste 55 Noroeste 0 -- -- 90
2019-11-11 22:00:00 5.4 44 Noroeste 62 Norte 0 -- -- 79
2019-11-11 21:00:00 5.2 45 Noroeste 60 Noroeste 0 -- -- 81
2019-11-11 20:00:00 5.2 46 Noroeste 70 Norte 0 -- -- 94
2019-11-11 19:00:00 5.1 59 Noroeste 79 Noroeste 0 -- -- 99
2019-11-11 18:00:00 5 51 Noroeste 64 Norte 0.1 -- -- 99
2019-11-11 17:00:00 5.1 47 Noroeste 66 Noroeste 0 -- -- 99
2019-11-11 16:00:00 5 54 Noroeste 73 Noroeste 0.1 -- -- 99
2019-11-11 15:00:00 5.2 46 Noroeste 61 Noroeste 2.6 -- -- 99
2019-11-11 14:00:00 5.1 44 Noroeste 66 Norte 1.9 -- -- 99
2019-11-11 13:00:00 4.7 50 Noroeste 72 Noroeste 0.4 -- -- 99
2019-11-11 12:00:00 4.5 51 Norte 93 Noroeste 0.9 -- -- 99
2019-11-11 11:00:00 4.5 65 Noroeste 96 Norte 0.5 -- -- 99
2019-11-11 10:00:00 4.2 71 Noroeste 105 Noroeste 0.1 -- -- 99
2019-11-11 09:00:00 4.9 78 Noroeste 97 Norte 0 -- -- 82
2019-11-11 08:00:00 4.6 60 Noroeste 92 Noroeste 0 -- -- 99
2019-11-11 07:00:00 4.8 54 Noroeste 90 Noroeste 0 -- -- 99
2019-11-11 06:00:00 4.6 54 Noroeste 89 Noroeste 0 -- -- 99
2019-11-11 05:00:00 4.7 54 Noroeste 83 Noroeste 0 -- -- 99
2019-11-11 04:00:00 5 46 Noroeste 77 Noroeste 0 -- -- 99
2019-11-11 03:00:00 4.9 44 Noroeste 71 Noroeste 0 -- -- 99
2019-11-11 02:00:00 4.9 48 Noroeste 68 Noroeste 0 -- -- 99
2019-11-11 01:00:00 4.8 40 Noroeste 58 Noroeste 0 -- -- 94
2019-11-11 00:00:00 4.9 40 Noroeste 63 Noroeste 0.1 -- -- 98
2019-11-10 23:00:00 4.8 33 Noroeste 50 Noroeste 0 -- -- 92
2019-11-10 22:00:00 4.9 27 Norte 41 Noroeste 0 -- -- 94
2019-11-10 21:00:00 4.8 27 Norte 56 Noroeste 0 -- -- 98
2019-11-10 20:00:00 5 38 Norte 69 Noroeste 0 -- -- 97
2019-11-10 19:00:00 5.1 48 Noroeste 69 Noroeste 0 -- -- 88
2019-11-10 18:00:00 4.7 37 Noroeste 64 Noroeste 0 -- -- 90
2019-11-10 17:00:00 4.5 40 Noroeste 67 Noroeste 0 -- -- 96
2019-11-10 16:00:00 4.2 40 Noroeste 68 Noroeste 0 -- -- 99
2019-11-10 15:00:00 4.4 33 Noroeste 63 Noroeste 0 -- -- 99
2019-11-10 14:00:00 3.5 30 Noroeste 52 Norte 0.3 -- -- 99
2019-11-10 13:00:00 3.1 38 Noroeste 81 Noroeste 0 -- -- 99
2019-11-10 12:00:00 1.9 78 Noroeste 105 Noroeste 0.6 -- -- 99
2019-11-10 11:00:00 2.5 67 Noroeste 111 Noroeste 1.8 -- -- 99
2019-11-10 10:00:00 2.6 75 Noroeste 109 Noroeste 7.2 -- -- 99
2019-11-10 09:00:00 3.5 43 Norte 85 Norte 3.2 -- -- 99
2019-11-10 08:00:00 5.1 50 Noroeste 83 Noroeste 0.1 -- -- 99
2019-11-10 07:00:00 5.2 53 Noroeste 94 Noroeste 2 -- -- 99
2019-11-10 06:00:00 5.2 47 Noroeste 98 Noroeste 18.4 -- -- 99
2019-11-10 05:00:00 7.4 33 Noroeste 54 Noroeste 0 -- -- 94
2019-11-10 04:00:00 7.7 27 Noroeste 45 Noroeste 0 -- -- 91
2019-11-10 03:00:00 7.9 29 Noroeste 53 Oeste 0 -- -- 86
2019-11-10 02:00:00 8.3 31 Noroeste 52 Noroeste 0 -- -- 92
2019-11-10 01:00:00 8.5 21 Oeste 47 Oeste 0 -- -- 96
2019-11-10 00:00:00 8.1 20 Sudoeste 48 Sudoeste 0 -- -- 87